Kirksville Regional Airport Kirksville US
ICAO: KIRK
IATA: IRK
Category: Medium
Scheduled Services: Yes

Elevation: 966 ft
TransAlt. 18000 ft.

Airport Communications:
ASOS:121.125
KANSAS CITY CNTR:132.6
COLUMBIA RDO:122.2
CTAF/UNICOM:122.8

KIRK Zoom In..

If Map Doesn't Load, Click Here

Runways:

(A) RW 09 length 1370 ft width 100 ft
---- / hdg 88

(B) RW 18 length 6005 ft width 100 ft
---- / hdg 177

(C) RW 27 length 1370 ft width 100 ft
---- / hdg 268

(D) RW 36 length 6005 ft width 100 ft
ILS 111.50 / hdg 357

Location; KIRK
Day. 21 / Time. 15.55 Zulu
* Altimeter: 30.11
* Temperature: 18° c. 64.4°f.
* Wind from: 330° Speed 15 kn with Gusts up to 29 kn.
Dewpoint: 12° c.
Visibility: 10 Statute Miles.
Clouds: Clear (automated report).

KIRK 211555Z AUTO 33015G29KT 10SM CLR 18/12 A3011 RMK AO2 PK WND 33029/1550 SLP194 T01780122


Wind From 330°
Speed 15 kn.

 
 
jpsmedia.com for Web Design worldairports.se 2018   terms of use